Time;durP1;ratioP1;P1;durP2;ratioP2;P2;SDS_P1;SDS_P2;PMS_P1;PMS_P2;Temp;Humidity;BMP_temperature;BMP_pressure;BME280_temperature;BME280_humidity;BME280_pressure;Samples;Min_cycle;Max_cycle;Signal;HPM_P1;HPM_P2
2022/08/20 00:01:44;;;;;;;;;;;;;;;27.38;37.47;100290.94;5072169;28;1123;-45
2022/08/20 00:04:09;;;;;;;;;;;;;;;27.45;37.67;100282.06;5074240;28;1083;-44
2022/08/20 00:06:35;;;;;;;;;;;;;;;27.37;37.94;100291.16;5074065;28;2346;-45
2022/08/20 00:09:00;;;;;;;;;;;;;;;27.48;38.14;100289.75;5068764;28;929;-46
2022/08/20 00:11:25;;;;;;;;;;;;;;;27.54;37.62;100286.28;5067765;28;1263;-45
2022/08/20 00:13:52;;;;;;;;;;;;;;;27.41;37.78;100297.00;5066926;28;1953;-47
2022/08/20 00:16:18;;;;;;;;;;;;;;;27.45;38.04;100292.84;5071043;28;953;-45
2022/08/20 00:18:43;;;;;;;;;;;;;;;27.56;38.01;100292.31;5068204;28;1096;-45
2022/08/20 00:21:09;;;;;;;;;;;;;;;27.43;37.69;100289.50;5066244;28;1083;-44
2022/08/20 00:23:44;;;;;;;;;;;;;;;27.38;38.09;100288.25;5071412;28;1198;-44
2022/08/20 00:26:10;;;;;;;;;;;;;;;27.59;37.55;100291.09;5073668;28;1005;-45
2022/08/20 00:28:35;;;;;;;;;;;;;;;27.33;37.66;100290.69;5074378;28;1127;-44
2022/08/20 00:31:02;;;;;;;;;;;;;;;27.48;37.68;100287.06;5068566;28;945;-44
2022/08/20 00:33:27;;;;;;;;;;;;;;;27.64;37.89;100277.84;5068010;28;1957;-44
2022/08/20 00:35:55;;;;;;;;;;;;;;;27.73;37.17;100281.22;5064611;28;1652;-44
2022/08/20 00:38:20;;;;;;;;;;;;;;;27.53;37.49;100273.00;5070711;28;902;-46
2022/08/20 00:40:48;;;;;;;;;;;;;;;27.42;38.17;100272.50;5067078;28;1135;-47
2022/08/20 00:43:43;;;;;;;;;;;;;;;27.60;37.51;100272.00;5066060;28;1072;-45
2022/08/20 00:46:13;;;;;;;;;;;;;;;27.37;38.06;100269.53;5043688;28;1410;-44
2022/08/20 00:48:39;;;;;;;;;;;;;;;27.45;37.85;100272.09;5069439;28;1175;-45
2022/08/20 00:51:17;;;;;;;;;;;;;;;27.60;37.89;100274.69;5069442;28;1087;-45
2022/08/20 00:53:42;;;;;;;;;;;;;;;27.42;37.69;100266.25;5054013;28;2094;-45
2022/08/20 00:56:08;;;;;;;;;;;;;;;27.47;38.08;100258.38;5071110;28;1008;-47
2022/08/20 00:58:33;;;;;;;;;;;;;;;27.62;37.79;100259.13;5050644;28;989;-45
2022/08/20 01:00:59;;;;;;;;;;;;;;;27.34;37.75;100251.84;5055979;28;1100;-45
2022/08/20 01:03:24;;;;;;;;;;;;;;;27.41;37.77;100251.91;5069112;28;1203;-44
2022/08/20 01:05:49;;;;;;;;;;;;;;;27.63;38.18;100249.13;5062513;28;2372;-45
2022/08/20 01:08:15;;;;;;;;;;;;;;;27.33;38.03;100249.34;5064289;28;1062;-45
2022/08/20 01:10:43;;;;;;;;;;;;;;;27.39;38.11;100240.47;5047017;28;1135;-46
2022/08/20 01:13:09;;;;;;;;;;;;;;;27.56;37.82;100242.88;5055860;28;1906;-45
2022/08/20 01:15:36;;;;;;;;;;;;;;;27.33;37.85;100244.78;5054602;28;1120;-45
2022/08/20 01:18:01;;;;;;;;;;;;;;;27.38;38.08;100236.94;5075817;28;957;-45
2022/08/20 01:20:28;;;;;;;;;;;;;;;27.54;38.11;100242.22;5056772;28;1228;-47
2022/08/20 01:26:19;;;;;;;;;;;;;;;27.54;38.40;100250.34;5067369;28;926;-46
2022/08/20 01:28:44;;;;;;;;;;;;;;;27.46;37.91;100243.22;5046183;28;1683;-47
2022/08/20 01:31:12;;;;;;;;;;;;;;;27.46;38.07;100243.22;5070473;28;1028;-45
2022/08/20 01:33:37;;;;;;;;;;;;;;;27.60;37.99;100239.56;5068233;28;1964;-46
2022/08/20 01:36:03;;;;;;;;;;;;;;;27.45;37.88;100233.44;5072151;28;1877;-46
2022/08/20 01:38:28;;;;;;;;;;;;;;;27.44;38.09;100229.06;5074669;28;1000;-45
2022/08/20 01:40:59;;;;;;;;;;;;;;;27.54;38.02;100228.72;5072562;28;1293;-45
2022/08/20 01:43:24;;;;;;;;;;;;;;;27.35;38.54;100234.63;5071789;28;1059;-45
2022/08/20 01:45:50;;;;;;;;;;;;;;;27.41;38.17;100230.28;5050573;28;1146;-44
2022/08/20 01:48:15;;;;;;;;;;;;;;;27.59;37.84;100229.78;5071392;28;972;-46
2022/08/20 01:50:41;;;;;;;;;;;;;;;27.41;37.89;100232.19;5057391;28;974;-46
2022/08/20 01:53:36;;;;;;;;;;;;;;;27.46;38.31;100237.81;5056031;28;1960;-50
2022/08/20 01:56:01;;;;;;;;;;;;;;;27.51;37.65;100232.63;5054582;28;1142;-47
2022/08/20 01:58:28;;;;;;;;;;;;;;;27.36;38.27;100238.19;5070581;28;835;-45
2022/08/20 02:00:54;;;;;;;;;;;;;;;27.42;37.95;100236.53;5071497;28;969;-47
2022/08/20 02:03:19;;;;;;;;;;;;;;;27.54;37.92;100239.53;5067302;28;1049;-46
2022/08/20 02:05:44;;;;;;;;;;;;;;;27.32;38.23;100237.72;5068210;28;2232;-45
2022/08/20 02:08:09;;;;;;;;;;;;;;;27.51;37.68;100235.34;5069230;28;1014;-46
2022/08/20 02:10:35;;;;;;;;;;;;;;;27.60;37.68;100233.31;5070471;28;1246;-44
2022/08/20 02:13:00;;;;;;;;;;;;;;;27.37;38.05;100227.16;5074491;28;1934;-45
2022/08/20 02:15:25;;;;;;;;;;;;;;;27.44;37.97;100232.63;5072989;28;957;-46
2022/08/20 02:17:51;;;;;;;;;;;;;;;27.59;37.81;100232.47;5075577;28;953;-45
2022/08/20 02:20:17;;;;;;;;;;;;;;;27.34;38.10;100232.13;5076322;28;1226;-45
2022/08/20 02:22:43;;;;;;;;;;;;;;;27.54;38.25;100234.13;5074140;28;989;-45
2022/08/20 02:25:10;;;;;;;;;;;;;;;27.61;37.69;100233.13;5050333;28;1048;-45
2022/08/20 02:27:35;;;;;;;;;;;;;;;27.31;38.10;100227.13;5069230;28;1024;-45
2022/08/20 02:30:01;;;;;;;;;;;;;;;27.50;37.94;100231.81;5071936;28;1008;-45
2022/08/20 02:32:27;;;;;;;;;;;;;;;27.65;37.82;100225.47;5069851;28;1040;-46
2022/08/20 02:34:52;;;;;;;;;;;;;;;27.70;37.86;100228.44;5072277;28;1897;-48
2022/08/20 02:37:18;;;;;;;;;;;;;;;27.48;37.79;100227.63;5072316;28;1742;-47
2022/08/20 02:39:44;;;;;;;;;;;;;;;27.41;38.27;100224.88;5074582;28;897;-48
2022/08/20 02:42:11;;;;;;;;;;;;;;;27.59;38.15;100235.19;5075578;28;1127;-49
2022/08/20 02:44:36;;;;;;;;;;;;;;;27.41;38.12;100230.28;5070774;28;1111;-46
2022/08/20 02:47:01;;;;;;;;;;;;;;;27.47;38.32;100236.78;5070531;28;835;-46
2022/08/20 02:49:27;;;;;;;;;;;;;;;27.58;37.46;100233.53;5072763;28;1163;-47
2022/08/20 02:51:52;;;;;;;;;;;;;;;27.69;37.36;100231.31;5076163;28;1063;-47
2022/08/20 02:54:17;;;;;;;;;;;;;;;27.51;37.80;100229.94;5076534;28;1909;-48
2022/08/20 02:56:42;;;;;;;;;;;;;;;27.41;38.08;100233.00;5071147;28;941;-47
2022/08/20 02:59:08;;;;;;;;;;;;;;;27.44;37.91;100232.63;5068168;28;1436;-47
2022/08/20 03:01:33;;;;;;;;;;;;;;;27.42;37.77;100240.06;5067646;28;1072;-47
2022/08/20 03:03:59;;;;;;;;;;;;;;;27.45;37.79;100242.38;5071720;28;1104;-47
2022/08/20 03:06:24;;;;;;;;;;;;;;;27.53;37.93;100240.56;5066690;28;2272;-51
2022/08/20 03:08:50;;;;;;;;;;;;;;;27.40;37.58;100234.03;5072564;28;1028;-47
2022/08/20 03:11:15;;;;;;;;;;;;;;;27.40;38.08;100236.72;5072736;28;1062;-49
2022/08/20 03:13:40;;;;;;;;;;;;;;;27.65;37.34;100236.25;5072924;28;1914;-46
2022/08/20 03:16:06;;;;;;;;;;;;;;;27.50;37.68;100230.97;5075639;28;1028;-49
2022/08/20 03:18:33;;;;;;;;;;;;;;;27.35;38.46;100231.09;5076256;28;1124;-49
2022/08/20 03:20:58;;;;;;;;;;;;;;;27.58;37.96;100229.97;5069957;28;1091;-51
2022/08/20 03:23:23;;;;;;;;;;;;;;;27.36;37.91;100235.47;5069009;28;1143;-48
2022/08/20 03:25:49;;;;;;;;;;;;;;;27.38;37.55;100233.38;5068315;28;1452;-47
2022/08/20 03:28:14;;;;;;;;;;;;;;;27.50;37.86;100231.81;5071763;28;1040;-45
2022/08/20 03:30:40;;;;;;;;;;;;;;;27.40;38.19;100228.63;5068997;28;1119;-48
2022/08/20 03:33:05;;;;;;;;;;;;;;;26.98;41.06;100229.34;5072329;28;1906;-51
2022/08/20 03:35:30;;;;;;;;;;;;;;;26.76;42.44;100234.75;5065575;28;1821;-50
2022/08/20 03:37:56;;;;;;;;;;;;;;;27.09;40.27;100233.38;5074837;28;1009;-49
2022/08/20 03:40:22;;;;;;;;;;;;;;;27.00;44.56;100239.94;5074692;28;1135;-53
2022/08/20 03:42:48;;;;;;;;;;;;;;;27.06;39.06;100241.88;5068518;28;1024;-51
2022/08/20 03:45:13;;;;;;;;;;;;;;;27.10;41.85;100231.53;5073951;28;1115;-50
2022/08/20 03:47:39;;;;;;;;;;;;;;;27.25;42.74;100237.69;5073144;28;1115;-50
2022/08/20 03:50:04;;;;;;;;;;;;;;;27.09;43.17;100235.28;5075121;28;1072;-43
2022/08/20 03:52:29;;;;;;;;;;;;;;;27.28;43.97;100233.75;5056957;28;1167;-44
2022/08/20 03:54:55;;;;;;;;;;;;;;;27.26;42.84;100236.63;5063743;28;1956;-44
2022/08/20 03:57:20;;;;;;;;;;;;;;;27.30;43.16;100236.25;5070336;28;1005;-44
2022/08/20 03:59:46;;;;;;;;;;;;;;;27.23;43.67;100237.03;5067043;28;989;-46
2022/08/20 04:02:11;;;;;;;;;;;;;;;27.25;43.21;100240.38;5070998;28;980;-44
2022/08/20 04:04:37;;;;;;;;;;;;;;;27.18;44.66;100249.44;5071240;28;917;-44
2022/08/20 04:07:12;;;;;;;;;;;;;;;27.30;41.44;100242.47;5068381;28;2363;-45
2022/08/20 04:09:38;;;;;;;;;;;;;;;27.49;40.77;100251.75;5072963;28;1061;-45
2022/08/20 04:12:04;;;;;;;;;;;;;;;27.67;40.28;100246.88;5068042;28;1267;-46
2022/08/20 04:14:29;;;;;;;;;;;;;;;27.53;40.27;100243.28;5074886;28;1905;-43
2022/08/20 04:16:55;;;;;;;;;;;;;;;27.69;40.03;100247.53;5070738;28;976;-48
2022/08/20 04:19:20;;;;;;;;;;;;;;;27.77;39.34;100241.13;5068150;28;1008;-45
2022/08/20 04:21:47;;;;;;;;;;;;;;;27.68;39.78;100245.81;5048180;28;1005;-45
2022/08/20 04:24:13;;;;;;;;;;;;;;;27.66;39.43;100253.31;5057367;28;1184;-44
2022/08/20 04:26:38;;;;;;;;;;;;;;;27.70;39.26;100247.34;5061369;28;1208;-45
2022/08/20 04:29:04;;;;;;;;;;;;;;;27.62;39.29;100247.47;5060972;28;1251;-45
2022/08/20 04:31:32;;;;;;;;;;;;;;;27.76;39.12;100256.50;5057286;28;1255;-42
2022/08/20 04:33:58;;;;;;;;;;;;;;;27.66;39.13;100248.72;5059259;28;1965;-46
2022/08/20 04:36:24;;;;;;;;;;;;;;;27.59;39.33;100255.97;5057005;28;1745;-44
2022/08/20 04:38:49;;;;;;;;;;;;;;;27.72;39.11;100260.66;5058772;28;1256;-44
2022/08/20 04:41:14;;;;;;;;;;;;;;;27.72;38.51;100256.09;5058016;28;1267;-47
2022/08/20 04:43:40;;;;;;;;;;;;;;;27.67;38.65;100255.81;5056917;28;1216;-44
2022/08/20 04:46:08;;;;;;;;;;;;;;;27.69;38.72;100253.78;5060220;28;1152;-45
2022/08/20 04:48:34;;;;;;;;;;;;;;;27.64;38.51;100256.22;5059123;28;1009;-44
2022/08/20 04:51:01;;;;;;;;;;;;;;;27.87;38.44;100258.66;5056831;28;1286;-44
2022/08/20 04:53:26;;;;;;;;;;;;;;;27.72;38.21;100261.50;5058397;28;1890;-43
2022/08/20 04:55:53;;;;;;;;;;;;;;;27.69;38.29;100256.50;5059522;28;1278;-42
2022/08/20 04:58:19;;;;;;;;;;;;;;;27.82;38.49;100255.72;5061764;28;1160;-44
2022/08/20 05:00:48;;;;;;;;;;;;;;;27.67;38.23;100253.13;5059060;28;994;-44
2022/08/20 05:03:14;;;;;;;;;;;;;;;27.71;38.18;100259.81;5056524;28;1243;-43
2022/08/20 05:05:40;;;;;;;;;;;;;;;27.68;38.24;100262.91;5058385;28;1814;-43
2022/08/20 05:08:05;;;;;;;;;;;;;;;27.63;38.52;100255.38;5059165;28;1190;-43
2022/08/20 05:10:30;;;;;;;;;;;;;;;27.81;38.29;100259.44;5058360;28;1310;-43
2022/08/20 05:12:56;;;;;;;;;;;;;;;27.73;37.96;100257.75;5058543;28;1139;-45
2022/08/20 05:15:23;;;;;;;;;;;;;;;27.66;38.15;100266.81;5057470;28;1910;-44
2022/08/20 05:17:52;;;;;;;;;;;;;;;27.81;38.06;100259.44;5057004;28;1169;-44
2022/08/20 05:20:18;;;;;;;;;;;;;;;27.57;37.99;100261.59;5058612;28;1267;-47
2022/08/20 05:22:43;;;;;;;;;;;;;;;27.69;38.06;100263.75;5059159;28;1238;-45
2022/08/20 05:25:08;;;;;;;;;;;;;;;27.93;37.86;100266.97;5056515;28;1029;-43
2022/08/20 05:27:34;;;;;;;;;;;;;;;27.63;37.92;100271.59;5040389;28;1159;-45
2022/08/20 05:30:00;;;;;;;;;;;;;;;27.68;38.14;100262.91;5058529;28;1064;-44
2022/08/20 05:32:25;;;;;;;;;;;;;;;27.70;37.77;100263.56;5060524;28;1291;-45
2022/08/20 05:34:50;;;;;;;;;;;;;;;27.69;38.01;100255.66;5056824;28;1963;-44
2022/08/20 05:37:16;;;;;;;;;;;;;;;27.90;37.37;100262.81;5057240;28;2209;-44
2022/08/20 05:39:42;;;;;;;;;;;;;;;27.61;37.63;100251.22;5059991;28;1254;-44
2022/08/20 05:42:08;;;;;;;;;;;;;;;27.69;37.56;100248.38;5058645;28;1330;-44
2022/08/20 05:44:36;;;;;;;;;;;;;;;27.77;36.88;100241.13;5071980;28;1121;-44
2022/08/20 05:47:02;;;;;;;;;;;;;;;27.73;37.21;100246.09;5065114;28;965;-44
2022/08/20 05:49:28;;;;;;;;;;;;;;;27.91;37.59;100244.75;5068681;28;1060;-44
2022/08/20 05:51:53;;;;;;;;;;;;;;;27.94;37.00;100245.19;5071080;28;969;-44
2022/08/20 05:54:18;;;;;;;;;;;;;;;27.83;37.36;100238.47;5069705;28;1898;-43
2022/08/20 05:56:44;;;;;;;;;;;;;;;27.85;37.08;100228.28;5075000;28;1108;-44
2022/08/20 05:59:09;;;;;;;;;;;;;;;27.58;37.19;100238.06;5075576;28;1104;-44
2022/08/20 06:01:35;;;;;;;;;;;;;;;27.82;37.15;100228.69;5077903;28;1060;-44
2022/08/20 06:06:44;;;;;;;;;;;;;;;27.80;36.86;100225.34;5068667;28;2505;-46
2022/08/20 06:09:09;;;;;;;;;;;;;;;27.95;36.67;100224.38;5071032;28;957;-46
2022/08/20 06:11:35;;;;;;;;;;;;;;;27.77;36.53;100216.81;5070736;28;1457;-45
2022/08/20 06:14:00;;;;;;;;;;;;;;;27.76;36.76;100224.06;5073881;28;1902;-48
2022/08/20 06:16:25;;;;;;;;;;;;;;;27.85;36.87;100220.19;5071919;28;1115;-46
2022/08/20 06:18:51;;;;;;;;;;;;;;;27.88;36.54;100221.63;5075632;28;1150;-45
2022/08/20 06:21:16;;;;;;;;;;;;;;;27.83;36.38;100227.66;5074844;28;1364;-46
2022/08/20 06:23:41;;;;;;;;;;;;;;;27.93;36.40;100227.28;5072883;28;993;-46
2022/08/20 06:26:08;;;;;;;;;;;;;;;27.77;36.18;100228.47;5075314;28;913;-47
2022/08/20 06:28:33;;;;;;;;;;;;;;;27.59;36.33;100224.38;5067460;28;1020;-47
2022/08/20 06:30:59;;;;;;;;;;;;;;;27.74;36.59;100226.16;5072287;28;931;-44
2022/08/20 06:33:24;;;;;;;;;;;;;;;27.66;36.70;100223.59;5068084;28;1890;-47
2022/08/20 06:35:49;;;;;;;;;;;;;;;27.38;37.01;100234.22;5067962;28;1923;-45
2022/08/20 06:38:15;;;;;;;;;;;;;;;27.55;36.76;100227.66;5071032;28;1075;-46
2022/08/20 06:40:40;;;;;;;;;;;;;;;27.79;36.37;100234.50;5075126;28;1036;-48
2022/08/20 06:43:07;;;;;;;;;;;;;;;27.48;37.07;100233.03;5059184;28;1104;-45
2022/08/20 06:45:34;;;;;;;;;;;;;;;27.46;36.68;100235.94;5071207;28;1031;-45
2022/08/20 06:48:00;;;;;;;;;;;;;;;27.60;36.50;100233.31;5066301;28;1044;-58
2022/08/20 06:50:28;;;;;;;;;;;;;;;27.62;36.70;100229.41;5073142;28;957;-49
2022/08/20 06:52:54;;;;;;;;;;;;;;;27.54;36.51;100234.97;5069906;28;1061;-45
2022/08/20 06:55:19;;;;;;;;;;;;;;;27.69;36.39;100237.56;5059169;28;1913;-50
2022/08/20 06:57:46;;;;;;;;;;;;;;;27.68;36.32;100237.72;5053433;28;1298;-50
2022/08/20 07:00:16;;;;;;;;;;;;;;;27.65;36.61;100240.81;5060366;28;1115;-48
2022/08/20 07:02:41;;;;;;;;;;;;;;;27.67;36.08;100228.78;5058684;28;1279;-45
2022/08/20 07:05:07;;;;;;;;;;;;;;;27.70;36.43;100227.59;5060041;28;1053;-49
2022/08/20 07:07:33;;;;;;;;;;;;;;;27.67;36.17;100226.09;5052921;28;2498;-47
2022/08/20 07:10:05;;;;;;;;;;;;;;;27.69;36.04;100240.28;5061514;28;1251;-49
2022/08/20 07:12:30;;;;;;;;;;;;;;;27.77;36.40;100235.72;5060819;28;1021;-48
2022/08/20 07:14:56;;;;;;;;;;;;;;;27.79;36.13;100231.81;5060624;28;1918;-46
2022/08/20 07:17:21;;;;;;;;;;;;;;;27.72;35.97;100230.94;5060563;28;1266;-47
2022/08/20 07:19:46;;;;;;;;;;;;;;;27.76;36.27;100229.47;5060225;28;1063;-47
2022/08/20 07:22:13;;;;;;;;;;;;;;;27.80;36.25;100224.50;5061254;28;1203;-48
2022/08/20 07:24:38;;;;;;;;;;;;;;;27.78;36.24;100226.59;5058955;28;1275;-46
2022/08/20 07:27:04;;;;;;;;;;;;;;;27.64;36.00;100223.81;5058001;28;1239;-54
2022/08/20 07:32:33;;;;;;;;;;;;;;;27.53;36.11;100222.47;5060664;28;1247;-48
2022/08/20 07:34:58;;;;;;;;;;;;;;;27.86;35.69;100221.03;5065590;28;1906;-49
2022/08/20 07:37:23;;;;;;;;;;;;;;;27.81;35.77;100213.50;5071584;28;2565;-51
2022/08/20 07:39:49;;;;;;;;;;;;;;;28.00;35.70;100213.78;5074613;28;993;-47
2022/08/20 07:42:14;;;;;;;;;;;;;;;28.19;35.09;100216.78;5075423;28;1234;-48
2022/08/20 07:44:39;;;;;;;;;;;;;;;28.22;35.04;100219.06;5066219;28;1206;-47
2022/08/20 07:47:05;;;;;;;;;;;;;;;28.16;35.14;100225.28;5072047;28;1084;-47
2022/08/20 07:49:30;;;;;;;;;;;;;;;28.29;35.81;100217.22;5068890;28;1183;-47
2022/08/20 07:51:56;;;;;;;;;;;;;;;28.35;35.33;100216.44;5073306;28;1099;-49
2022/08/20 07:54:21;;;;;;;;;;;;;;;28.37;35.47;100216.22;5072921;28;1955;-45
2022/08/20 07:56:47;;;;;;;;;;;;;;;28.41;35.04;100219.38;5073889;28;985;-49
2022/08/20 07:59:12;;;;;;;;;;;;;;;28.19;35.08;100214.91;5074838;28;917;-47
2022/08/20 08:01:38;;;;;;;;;;;;;;;28.30;35.08;100210.78;5066784;28;1222;-47
2022/08/20 08:04:03;;;;;;;;;;;;;;;28.34;35.00;100217.44;5068510;28;1470;-43
2022/08/20 08:06:29;;;;;;;;;;;;;;;28.32;35.22;100213.28;5062098;28;1845;-46
2022/08/20 08:08:54;;;;;;;;;;;;;;;28.35;35.73;100213.72;5069123;28;1095;-47
2022/08/20 08:11:19;;;;;;;;;;;;;;;28.42;34.93;100212.91;5052199;28;1158;-51
2022/08/20 08:13:45;;;;;;;;;;;;;;;28.47;34.98;100219.38;5045182;28;1981;-50
2022/08/20 08:16:10;;;;;;;;;;;;;;;28.47;34.96;100216.66;5073290;28;953;-50
2022/08/20 08:18:40;;;;;;;;;;;;;;;28.51;35.07;100210.84;5071896;28;1131;-47
2022/08/20 08:21:06;;;;;;;;;;;;;;;28.55;34.96;100204.81;5074222;28;1068;-50
2022/08/20 08:23:31;;;;;;;;;;;;;;;28.51;35.21;100200.84;5054819;28;1143;-46
2022/08/20 08:25:58;;;;;;;;;;;;;;;28.59;35.05;100194.41;5064197;28;1281;-48
2022/08/20 08:28:24;;;;;;;;;;;;;;;28.57;34.80;100201.91;5057501;28;1215;-46
2022/08/20 08:30:49;;;;;;;;;;;;;;;28.63;35.03;100206.47;5060183;28;1278;-48
2022/08/20 08:33:27;;;;;;;;;;;;;;;28.58;34.89;100200.84;5066199;28;1901;-47
2022/08/20 08:35:53;;;;;;;;;;;;;;;28.67;35.03;100199.63;5062859;28;2329;-50
2022/08/20 08:38:18;;;;;;;;;;;;;;;28.65;34.78;100193.56;5059492;28;1243;-47
2022/08/20 08:40:44;;;;;;;;;;;;;;;28.69;35.28;100196.72;5060181;28;1334;-53
2022/08/20 08:43:10;;;;;;;;;;;;;;;28.74;35.33;100188.81;5067342;28;1017;-47
2022/08/20 08:45:44;;;;;;;;;;;;;;;28.72;35.21;100186.31;5055995;28;1147;-45
2022/08/20 08:48:10;;;;;;;;;;;;;;;28.79;35.44;100190.88;5040760;28;1134;-47
2022/08/20 08:50:36;;;;;;;;;;;;;;;28.78;35.34;100184.63;5045931;28;1204;-48
2022/08/20 08:53:04;;;;;;;;;;;;;;;28.78;35.40;100186.53;5059911;28;1139;-47
2022/08/20 08:55:29;;;;;;;;;;;;;;;28.85;35.84;100192.75;5056777;28;1902;-46
2022/08/20 08:57:55;;;;;;;;;;;;;;;28.84;35.40;100191.91;5058622;28;1164;-45
2022/08/20 09:00:21;;;;;;;;;;;;;;;28.78;34.76;100192.75;5056890;28;1259;-48
2022/08/20 09:02:58;;;;;;;;;;;;;;;28.83;35.24;100195.66;5058146;28;1255;-47
2022/08/20 09:05:26;;;;;;;;;;;;;;;28.83;35.92;100192.97;5058709;28;2227;-50
2022/08/20 09:07:52;;;;;;;;;;;;;;;28.87;35.52;100195.25;5047934;28;1421;-47
2022/08/20 09:10:18;;;;;;;;;;;;;;;28.90;35.34;100198.38;5051587;28;1258;-47
2022/08/20 09:12:44;;;;;;;;;;;;;;;28.92;35.73;100200.88;5055816;28;1204;-46
2022/08/20 09:15:10;;;;;;;;;;;;;;;28.96;35.62;100194.00;5058420;28;2047;-46
2022/08/20 09:17:35;;;;;;;;;;;;;;;28.98;35.25;100197.34;5058640;28;1325;-48
2022/08/20 09:20:01;;;;;;;;;;;;;;;28.98;35.60;100197.34;5059760;28;1227;-46
2022/08/20 09:22:26;;;;;;;;;;;;;;;29.02;36.29;100195.06;5058129;28;1242;-47
2022/08/20 09:24:52;;;;;;;;;;;;;;;29.03;35.71;100197.56;5057651;28;1397;-47
2022/08/20 09:27:17;;;;;;;;;;;;;;;29.03;36.04;100192.16;5057630;28;1525;-48
2022/08/20 09:29:42;;;;;;;;;;;;;;;29.03;36.34;100192.16;5059977;28;1243;-47
2022/08/20 09:32:10;;;;;;;;;;;;;;;29.06;36.37;100182.78;5061577;28;1184;-47
2022/08/20 09:34:36;;;;;;;;;;;;;;;29.04;36.61;100184.88;5060974;28;1970;-49
2022/08/20 09:37:02;;;;;;;;;;;;;;;29.06;36.15;100180.88;5062126;28;2214;-48
2022/08/20 09:39:27;;;;;;;;;;;;;;;29.05;35.81;100179.22;5062414;28;1068;-49
2022/08/20 09:41:52;;;;;;;;;;;;;;;29.11;37.17;100176.72;5056541;28;1204;-49
2022/08/20 09:44:17;;;;;;;;;;;;;;;29.11;35.86;100179.44;5061378;28;1029;-47
2022/08/20 09:46:43;;;;;;;;;;;;;;;29.08;36.69;100169.84;5061128;28;1107;-47
2022/08/20 09:49:08;;;;;;;;;;;;;;;29.06;36.06;100180.06;5062929;28;1223;-47
2022/08/20 09:51:33;;;;;;;;;;;;;;;29.07;36.95;100177.16;5063098;28;1207;-46
2022/08/20 09:53:59;;;;;;;;;;;;;;;29.09;36.95;100172.34;5061675;28;1890;-51
2022/08/20 09:56:24;;;;;;;;;;;;;;;29.16;37.27;100168.81;5062055;28;1235;-48
2022/08/20 09:58:50;;;;;;;;;;;;;;;29.23;37.44;100166.09;5051800;28;1370;-50
2022/08/20 10:01:16;;;;;;;;;;;;;;;29.08;36.79;100159.84;5058447;28;1311;-51
2022/08/20 10:03:41;;;;;;;;;;;;;;;29.20;37.63;100160.03;5062855;28;1220;-48
2022/08/20 10:06:07;;;;;;;;;;;;;;;29.20;37.03;100164.63;5060179;28;2371;-50
2022/08/20 10:08:32;;;;;;;;;;;;;;;29.19;37.21;100160.25;5062742;28;1192;-50
2022/08/20 10:10:57;;;;;;;;;;;;;;;29.23;37.27;100150.66;5061806;28;1254;-50
2022/08/20 10:13:23;;;;;;;;;;;;;;;29.17;36.73;100155.06;5062404;28;1985;-47
2022/08/20 10:15:48;;;;;;;;;;;;;;;29.15;36.62;100150.88;5061911;28;1234;-47
2022/08/20 10:18:13;;;;;;;;;;;;;;;29.09;37.38;100158.00;5060995;28;1231;-46
2022/08/20 10:20:39;;;;;;;;;;;;;;;29.18;37.64;100158.56;5061387;28;1349;-49
2022/08/20 10:23:04;;;;;;;;;;;;;;;29.17;37.57;100152.34;5063327;28;1191;-46
2022/08/20 10:25:29;;;;;;;;;;;;;;;29.23;37.00;100160.66;5059729;28;1204;-46
2022/08/20 10:27:55;;;;;;;;;;;;;;;29.16;37.05;100155.28;5059703;28;1347;-51
2022/08/20 10:30:20;;;;;;;;;;;;;;;29.16;36.89;100152.56;5062575;28;1123;-47
2022/08/20 10:32:46;;;;;;;;;;;;;;;29.21;37.92;100152.75;5062001;28;1092;-47
2022/08/20 10:35:11;;;;;;;;;;;;;;;29.08;37.63;100153.59;5061179;28;1961;-47
2022/08/20 10:37:36;;;;;;;;;;;;;;;29.19;38.89;100163.81;5060889;28;2527;-47
2022/08/20 10:40:02;;;;;;;;;;;;;;;29.23;37.70;100155.25;5060825;28;1092;-47
2022/08/20 10:42:28;;;;;;;;;;;;;;;29.28;38.16;100158.16;5062728;28;1223;-48
2022/08/20 10:44:53;;;;;;;;;;;;;;;29.27;37.67;100151.91;5061863;28;1259;-49
2022/08/20 10:47:28;;;;;;;;;;;;;;;29.25;37.50;100163.97;5059497;28;1009;-45
2022/08/20 10:49:54;;;;;;;;;;;;;;;29.29;38.77;100171.50;5061527;28;1212;-53
2022/08/20 10:52:20;;;;;;;;;;;;;;;29.18;37.92;100170.25;5061362;28;1056;-57
2022/08/20 10:54:45;;;;;;;;;;;;;;;29.21;38.01;100163.59;5058464;28;1967;-54
2022/08/20 10:57:21;;;;;;;;;;;;;;;29.24;38.09;100167.75;5060034;28;1227;-50
2022/08/20 10:59:46;;;;;;;;;;;;;;;29.16;38.21;100160.69;5056643;28;1065;-51
2022/08/20 11:02:12;;;;;;;;;;;;;;;29.14;37.86;100163.59;5060800;28;1231;-58
2022/08/20 11:04:39;;;;;;;;;;;;;;;29.26;37.99;100168.38;5061820;28;1049;-53
2022/08/20 11:07:23;;;;;;;;;;;;;;;29.36;38.70;100155.22;5060904;28;2231;-51
2022/08/20 11:09:48;;;;;;;;;;;;;;;29.32;38.79;100151.25;5059592;28;1267;-57
2022/08/20 11:12:14;;;;;;;;;;;;;;;29.24;37.88;100149.63;5060292;28;1203;-59
2022/08/20 11:14:39;;;;;;;;;;;;;;;29.14;38.05;100146.50;5062523;28;1973;-51
2022/08/20 11:17:05;;;;;;;;;;;;;;;29.25;38.13;100145.84;5059399;28;1199;-54
2022/08/20 11:19:30;;;;;;;;;;;;;;;29.21;38.02;100145.44;5059462;28;1123;-58
2022/08/20 11:21:55;;;;;;;;;;;;;;;29.38;38.88;100147.69;5061735;28;1235;-53
2022/08/20 11:24:21;;;;;;;;;;;;;;;29.41;38.46;100135.63;5061346;28;1532;-48
2022/08/20 11:26:46;;;;;;;;;;;;;;;29.49;38.75;100135.38;5060198;28;1120;-51
2022/08/20 11:29:12;;;;;;;;;;;;;;;29.44;38.40;100141.44;5060237;28;1239;-59
2022/08/20 11:31:37;;;;;;;;;;;;;;;29.43;37.92;100137.06;5059851;28;1009;-56
2022/08/20 11:34:02;;;;;;;;;;;;;;;29.37;37.71;100127.06;5061972;28;1961;-56
2022/08/20 11:36:28;;;;;;;;;;;;;;;29.43;37.68;100128.94;5059274;28;1884;-52
2022/08/20 11:38:53;;;;;;;;;;;;;;;29.45;37.39;100132.25;5063432;28;1330;-46
2022/08/20 11:41:18;;;;;;;;;;;;;;;29.43;37.91;100126.22;5056366;28;1119;-45
2022/08/20 11:43:43;;;;;;;;;;;;;;;29.45;37.16;100132.25;5073179;28;1265;-45
2022/08/20 11:46:09;;;;;;;;;;;;;;;29.47;37.96;100129.34;5074090;28;1178;-47
2022/08/20 11:48:34;;;;;;;;;;;;;;;29.48;37.02;100125.56;5076087;28;1395;-45
2022/08/20 11:50:59;;;;;;;;;;;;;;;29.48;37.15;100127.47;5068988;28;941;-44
2022/08/20 11:53:25;;;;;;;;;;;;;;;29.46;37.05;100125.78;5065199;28;1909;-44
2022/08/20 11:55:50;;;;;;;;;;;;;;;29.48;37.42;100122.84;5071404;28;925;-44
2022/08/20 11:58:15;;;;;;;;;;;;;;;29.60;37.46;100116.78;5044669;28;1211;-43
2022/08/20 12:00:41;;;;;;;;;;;;;;;29.55;36.79;100107.41;5059436;28;1087;-47
2022/08/20 12:03:06;;;;;;;;;;;;;;;29.65;38.14;100115.09;5058724;28;1270;-43
2022/08/20 12:05:32;;;;;;;;;;;;;;;29.65;38.08;100112.41;5061850;28;1810;-46
2022/08/20 12:07:58;;;;;;;;;;;;;;;29.62;37.90;100115.53;5056622;28;1068;-47
2022/08/20 12:10:25;;;;;;;;;;;;;;;29.61;37.51;100111.19;5059380;28;1127;-49
2022/08/20 12:12:50;;;;;;;;;;;;;;;29.58;38.41;100114.25;5060609;28;1096;-44
2022/08/20 12:15:16;;;;;;;;;;;;;;;29.63;37.91;100119.09;5059071;28;1971;-45
2022/08/20 12:17:41;;;;;;;;;;;;;;;29.66;38.12;100114.06;5060280;28;1108;-47
2022/08/20 12:20:08;;;;;;;;;;;;;;;29.62;37.92;100110.13;5060164;28;1108;-45
2022/08/20 12:22:33;;;;;;;;;;;;;;;29.68;37.70;100113.84;5059914;28;1108;-44
2022/08/20 12:24:58;;;;;;;;;;;;;;;29.69;38.21;100104.66;5059722;28;1033;-44
2022/08/20 12:27:25;;;;;;;;;;;;;;;29.77;38.32;100103.56;5067581;28;1255;-43
2022/08/20 12:29:52;;;;;;;;;;;;;;;29.73;38.32;100105.06;5072861;28;1123;-45
2022/08/20 12:32:18;;;;;;;;;;;;;;;29.72;37.24;100106.94;5074777;28;1091;-43
2022/08/20 12:34:43;;;;;;;;;;;;;;;29.72;37.63;100109.66;5071589;28;1894;-46
2022/08/20 12:37:09;;;;;;;;;;;;;;;29.80;38.00;100108.56;5061333;28;2388;-46
2022/08/20 12:39:36;;;;;;;;;;;;;;;29.81;38.67;100099.41;5068005;28;1044;-44
2022/08/20 12:42:02;;;;;;;;;;;;;;;29.80;38.96;100100.44;5067639;28;1059;-44
2022/08/20 12:44:27;;;;;;;;;;;;;;;29.78;38.84;100106.06;5074360;28;1182;-45
2022/08/20 12:47:03;;;;;;;;;;;;;;;29.80;38.65;100105.84;5068669;28;960;-45
2022/08/20 12:49:29;;;;;;;;;;;;;;;29.87;38.35;100105.81;5066072;28;957;-45
2022/08/20 12:51:54;;;;;;;;;;;;;;;29.89;38.39;100103.72;5060508;28;819;-44